createdAt,value
2024-02-09T00:11:11.982Z,7
2024-02-09T00:31:12.029Z,7
2024-02-09T00:51:11.950Z,7
2024-02-09T01:11:12.010Z,7
2024-02-09T01:31:12.092Z,6.99
2024-02-09T01:51:11.981Z,6.99
2024-02-09T02:11:12.035Z,6.99
2024-02-09T02:31:12.018Z,6.99
2024-02-09T03:11:12.020Z,6.99
2024-02-09T03:31:12.024Z,6.99
2024-02-09T04:11:12.033Z,6.99
2024-02-09T04:31:12.056Z,6.98
2024-02-09T04:51:12.034Z,6.98
2024-02-09T05:11:12.044Z,6.98
2024-02-09T05:31:12.107Z,6.98
2024-02-09T05:51:11.289Z,6.98
2024-02-09T06:11:12.063Z,6.98
2024-02-09T06:51:12.120Z,6.98
2024-02-09T07:11:12.098Z,6.98
2024-02-09T07:31:12.098Z,6.98
2024-02-09T07:51:12.085Z,6.98
2024-02-09T08:31:12.112Z,6.97
2024-02-09T08:51:12.088Z,6.97
2024-02-09T09:11:12.116Z,6.97
2024-02-09T09:31:12.146Z,6.97
2024-02-09T09:51:12.106Z,6.97
2024-02-09T10:11:12.113Z,6.96
2024-02-09T10:31:12.146Z,6.96
2024-02-09T10:51:12.144Z,6.96
2024-02-09T11:11:12.129Z,6.96
2024-02-09T11:31:12.324Z,6.96
2024-02-09T11:51:12.203Z,6.96
2024-02-09T12:11:12.146Z,6.96
2024-02-09T12:31:11.402Z,6.95
2024-02-09T12:51:12.023Z,6.95
2024-02-09T13:11:11.368Z,6.95
2024-02-09T13:31:12.595Z,6.95
2024-02-09T13:51:12.162Z,6.94
2024-02-09T14:11:12.176Z,6.94
2024-02-09T14:31:12.258Z,6.94
2024-02-09T14:51:12.176Z,6.94
2024-02-09T15:11:12.160Z,6.94
2024-02-09T15:31:12.224Z,6.93
2024-02-09T16:11:12.171Z,6.93
2024-02-09T16:31:12.183Z,6.93
2024-02-09T16:51:12.319Z,6.93
2024-02-09T17:11:12.189Z,6.92
2024-02-09T17:31:12.257Z,6.93
2024-02-09T18:11:12.202Z,6.92
2024-02-09T18:31:12.259Z,6.92
2024-02-09T18:51:12.242Z,6.92
2024-02-09T19:11:11.714Z,6.92
2024-02-09T19:31:12.227Z,6.92
2024-02-09T19:51:11.482Z,6.92
2024-02-09T20:11:12.227Z,6.92
2024-02-09T20:31:12.260Z,6.91
2024-02-09T20:51:12.242Z,6.91
2024-02-09T21:11:12.260Z,6.91
2024-02-09T21:31:12.243Z,6.91
2024-02-09T22:11:12.260Z,6.91
2024-02-09T22:31:12.255Z,6.91
2024-02-09T22:51:12.254Z,6.91
2024-02-09T23:11:11.146Z,6.91
2024-02-09T23:31:11.159Z,6.91
2024-02-09T23:51:12.255Z,6.91
